createdAt,value
2018-07-28T00:01:58.503Z,6.33
2018-07-28T00:06:01.904Z,6.85
2018-07-28T00:10:08.171Z,6.67
2018-07-28T00:14:11.532Z,6.30
2018-07-28T00:18:14.913Z,6.37
2018-07-28T00:22:18.276Z,6.37
2018-07-28T00:26:21.598Z,6.17
2018-07-28T00:30:24.940Z,6.17
2018-07-28T00:34:28.310Z,6.22
2018-07-28T00:38:31.774Z,6.03
2018-07-28T00:42:35.420Z,6.00
2018-07-28T00:46:38.744Z,6.33
2018-07-28T00:50:42.115Z,6.27
2018-07-28T00:54:45.471Z,6.63
2018-07-28T00:58:48.805Z,6.27
2018-07-28T01:02:52.139Z,6.20
2018-07-28T01:06:55.452Z,6.27
2018-07-28T01:10:58.799Z,5.50
2018-07-28T01:15:02.161Z,5.70
2018-07-28T01:19:05.539Z,5.87
2018-07-28T01:23:08.912Z,6.20
2018-07-28T01:27:12.256Z,6.43
2018-07-28T01:31:15.592Z,6.90
2018-07-28T01:35:18.936Z,6.97
2018-07-28T01:39:22.286Z,6.67
2018-07-28T01:43:25.621Z,6.77
2018-07-28T01:47:28.956Z,6.73
2018-07-28T01:51:32.300Z,6.70
2018-07-28T01:55:35.624Z,8.27
2018-07-28T01:59:39.043Z,6.93
2018-07-28T02:03:42.391Z,6.87
2018-07-28T02:07:45.802Z,6.57
2018-07-28T02:11:49.440Z,6.80
2018-07-28T02:15:52.804Z,6.27
2018-07-28T02:19:56.296Z,6.53
2018-07-28T02:23:59.739Z,6.93
2018-07-28T02:28:03.299Z,6.30
2018-07-28T02:32:06.629Z,6.53
2018-07-28T02:36:09.991Z,6.27
2018-07-28T02:40:13.488Z,6.10
2018-07-28T02:44:16.843Z,6.40
2018-07-28T02:48:20.179Z,6.07
2018-07-28T02:52:23.506Z,5.80
2018-07-28T02:56:26.869Z,6.70
2018-07-28T03:00:30.263Z,5.90
2018-07-28T03:04:33.641Z,6.13
2018-07-28T03:08:37.097Z,6.40
2018-07-28T03:12:40.430Z,6.37
2018-07-28T03:16:43.796Z,6.77
2018-07-28T03:20:47.179Z,6.27
2018-07-28T03:24:50.515Z,6.10
2018-07-28T03:28:53.862Z,5.93
2018-07-28T03:32:57.185Z,6.17
2018-07-28T03:37:00.528Z,7.00
2018-07-28T03:41:03.904Z,6.20
2018-07-28T03:45:08.259Z,6.53
2018-07-28T03:49:11.605Z,6.70
2018-07-28T03:53:14.930Z,6.30
2018-07-28T03:57:18.791Z,6.13
2018-07-28T04:01:22.946Z,6.20
2018-07-28T04:05:26.292Z,6.73
2018-07-28T04:09:29.644Z,5.90
2018-07-28T04:13:32.954Z,5.97
2018-07-28T04:18:06.912Z,6.47
2018-07-28T04:22:10.276Z,6.07
2018-07-28T04:26:13.603Z,6.20
2018-07-28T04:30:16.956Z,6.50
2018-07-28T04:34:20.266Z,6.17
2018-07-28T04:38:23.587Z,6.50
2018-07-28T04:42:26.916Z,5.93
2018-07-28T04:46:31.434Z,6.00
2018-07-28T04:50:34.762Z,5.70
2018-07-28T04:54:38.077Z,5.80
2018-07-28T04:58:41.186Z,5.83
2018-07-28T05:02:44.544Z,6.30
2018-07-28T05:06:47.866Z,5.80
2018-07-28T05:10:51.203Z,5.90
2018-07-28T05:14:54.507Z,6.07
2018-07-28T05:18:58.542Z,5.97
2018-07-28T05:23:01.897Z,5.97
2018-07-28T05:27:05.282Z,6.17
2018-07-28T05:31:08.636Z,6.07
2018-07-28T05:35:11.961Z,5.93
2018-07-28T05:39:15.299Z,5.57
2018-07-28T05:43:18.709Z,5.50
2018-07-28T05:47:22.036Z,5.83
2018-07-28T05:51:25.363Z,5.90
2018-07-28T05:55:28.692Z,5.87
2018-07-28T05:59:32.021Z,5.50
2018-07-28T06:03:35.375Z,6.30
2018-07-28T06:07:38.712Z,5.73
2018-07-28T06:11:42.050Z,6.03
2018-07-28T06:15:45.392Z,5.50
2018-07-28T06:19:48.750Z,5.60
2018-07-28T06:23:52.074Z,5.77
2018-07-28T06:27:55.398Z,5.57
2018-07-28T06:31:59.419Z,5.20
2018-07-28T06:36:02.723Z,5.50
2018-07-28T06:40:06.194Z,5.40
2018-07-28T06:44:09.524Z,5.77
2018-07-28T06:48:12.852Z,5.37
2018-07-28T06:52:16.212Z,5.23
2018-07-28T06:56:19.531Z,5.80
2018-07-28T07:00:25.113Z,5.67
2018-07-28T07:04:28.433Z,5.40
2018-07-28T07:08:31.800Z,5.33
2018-07-28T07:12:35.223Z,5.43
2018-07-28T07:16:51.535Z,6.00
2018-07-28T07:21:03.959Z,5.53
2018-07-28T07:25:07.438Z,5.93
2018-07-28T07:29:11.692Z,6.23
2018-07-28T07:33:15.047Z,5.63
2018-07-28T07:37:18.396Z,5.77
2018-07-28T07:41:22.295Z,6.00
2018-07-28T07:45:25.659Z,5.70
2018-07-28T07:49:29.905Z,5.53
2018-07-28T07:53:33.232Z,6.08
2018-07-28T07:57:36.723Z,4.90
2018-07-28T08:01:40.150Z,5.50
2018-07-28T08:05:43.565Z,5.10
2018-07-28T08:09:46.936Z,5.50
2018-07-28T08:13:50.351Z,5.62
2018-07-28T08:17:53.723Z,5.50
2018-07-28T08:21:57.180Z,5.20
2018-07-28T08:26:00.563Z,5.33
2018-07-28T08:30:05.280Z,6.10
2018-07-28T08:34:08.651Z,5.60
2018-07-28T08:38:11.997Z,4.92
2018-07-28T08:42:15.365Z,5.75
2018-07-28T08:46:18.696Z,5.37
2018-07-28T08:50:22.056Z,5.50
2018-07-28T08:54:25.392Z,5.28
2018-07-28T08:58:28.776Z,5.60
2018-07-28T09:02:32.132Z,5.45
2018-07-28T09:06:35.570Z,5.70
2018-07-28T09:10:39.011Z,5.47
2018-07-28T09:14:42.402Z,5.70
2018-07-28T09:18:45.755Z,5.40
2018-07-28T09:22:49.113Z,5.53
2018-07-28T09:26:52.430Z,5.30
2018-07-28T09:30:55.774Z,5.47
2018-07-28T09:34:59.139Z,5.28
2018-07-28T09:39:02.498Z,5.10
2018-07-28T09:43:06.174Z,5.47
2018-07-28T09:47:09.544Z,5.03
2018-07-28T09:51:13.346Z,5.62
2018-07-28T09:55:16.996Z,5.25
2018-07-28T09:59:20.399Z,4.97
2018-07-28T10:03:23.803Z,4.70
2018-07-28T10:07:27.361Z,5.05
2018-07-28T10:11:32.520Z,5.45
2018-07-28T10:15:36.038Z,4.78
2018-07-28T10:19:39.443Z,5.37
2018-07-28T10:23:42.824Z,5.65
2018-07-28T10:27:46.214Z,5.15
2018-07-28T10:31:49.696Z,5.47
2018-07-28T10:35:53.035Z,5.00
2018-07-28T10:39:57.193Z,6.35
2018-07-28T10:44:00.540Z,6.10
2018-07-28T10:48:03.867Z,6.67
2018-07-28T10:52:07.207Z,6.45
2018-07-28T10:56:10.532Z,6.20
2018-07-28T11:00:13.959Z,6.72
2018-07-28T11:04:17.232Z,7.12
2018-07-28T11:08:20.531Z,6.67
2018-07-28T11:12:23.895Z,6.37
2018-07-28T11:16:27.226Z,6.58
2018-07-28T11:20:30.588Z,6.30
2018-07-28T11:24:33.966Z,6.03
2018-07-28T11:28:37.274Z,5.97
2018-07-28T11:32:51.788Z,6.60
2018-07-28T11:37:06.559Z,6.58
2018-07-28T11:41:21.204Z,7.87
2018-07-28T11:45:24.554Z,7.55
2018-07-28T11:49:28.242Z,8.25
2018-07-28T11:53:31.575Z,7.85
2018-07-28T11:57:34.923Z,7.97
2018-07-28T12:01:38.298Z,7.90
2018-07-28T12:05:41.596Z,7.92
2018-07-28T12:09:44.919Z,8.13
2018-07-28T12:13:48.251Z,7.53
2018-07-28T12:17:51.603Z,8.43
2018-07-28T12:21:55.319Z,8.28
2018-07-28T12:25:59.287Z,8.23
2018-07-28T12:30:02.610Z,7.97
2018-07-28T12:34:05.930Z,7.92
2018-07-28T12:38:09.292Z,7.70
2018-07-28T12:42:12.812Z,8.35
2018-07-28T12:46:16.140Z,8.23
2018-07-28T12:50:19.478Z,8.40
2018-07-28T12:54:22.806Z,9.38
2018-07-28T12:58:26.164Z,9.28
2018-07-28T13:02:29.498Z,9.28
2018-07-28T13:06:32.869Z,8.90
2018-07-28T13:10:35.908Z,8.35
2018-07-28T13:14:39.244Z,7.10
2018-07-28T13:18:42.603Z,6.05
2018-07-28T13:22:46.121Z,6.42
2018-07-28T13:26:49.453Z,5.40
2018-07-28T13:30:52.767Z,5.58
2018-07-28T13:34:56.099Z,4.85
2018-07-28T13:38:59.449Z,5.25
2018-07-28T13:43:02.763Z,5.47
2018-07-28T13:47:06.417Z,5.53
2018-07-28T13:51:09.734Z,5.67
2018-07-28T13:55:13.055Z,5.90
2018-07-28T13:59:16.508Z,5.97
2018-07-28T14:03:21.014Z,5.65
2018-07-28T14:07:24.360Z,5.70
2018-07-28T14:11:27.710Z,5.85
2018-07-28T14:15:31.084Z,5.15
2018-07-28T14:19:34.459Z,5.40
2018-07-28T14:23:37.884Z,5.62
2018-07-28T14:27:41.232Z,5.00
2018-07-28T14:31:44.535Z,5.20
2018-07-28T14:35:47.896Z,5.70
2018-07-28T14:39:51.299Z,4.65
2018-07-28T14:43:54.733Z,5.10
2018-07-28T14:47:58.059Z,4.80
2018-07-28T14:52:01.361Z,4.70
2018-07-28T14:56:04.732Z,5.30
2018-07-28T15:00:08.985Z,5.53
2018-07-28T15:04:12.326Z,5.60
2018-07-28T15:08:15.879Z,5.62
2018-07-28T15:12:19.204Z,5.53
2018-07-28T15:16:22.550Z,5.78
2018-07-28T15:20:25.912Z,5.65
2018-07-28T15:24:29.259Z,5.90
2018-07-28T15:28:32.612Z,6.22
2018-07-28T15:32:35.958Z,5.90
2018-07-28T15:36:39.283Z,5.70
2018-07-28T15:40:42.754Z,5.42
2018-07-28T15:44:46.116Z,5.45
2018-07-28T15:48:49.481Z,5.55
2018-07-28T15:52:52.832Z,5.28
2018-07-28T15:56:56.167Z,4.80
2018-07-28T16:00:59.508Z,5.90
2018-07-28T16:05:02.859Z,5.28
2018-07-28T16:09:08.212Z,5.50
2018-07-28T16:13:11.547Z,5.50
2018-07-28T16:17:14.885Z,5.17
2018-07-28T16:21:18.259Z,5.72
2018-07-28T16:25:21.646Z,6.05
2018-07-28T16:29:25.034Z,5.28
2018-07-28T16:33:28.407Z,5.42
2018-07-28T16:37:31.735Z,4.62
2018-07-28T16:41:35.187Z,5.20
2018-07-28T16:45:38.614Z,5.28
2018-07-28T16:49:41.967Z,4.92
2018-07-28T16:53:46.202Z,4.83
2018-07-28T16:57:49.651Z,4.47
2018-07-28T17:01:52.986Z,4.78
2018-07-28T17:05:56.820Z,4.50
2018-07-28T17:10:00.183Z,5.05
2018-07-28T17:14:03.602Z,4.28
2018-07-28T17:18:06.919Z,4.17
2018-07-28T17:22:10.291Z,4.75
2018-07-28T17:26:13.670Z,3.90
2018-07-28T17:30:17.005Z,3.65
2018-07-28T17:34:20.364Z,3.12
2018-07-28T17:38:23.678Z,4.12
2018-07-28T17:42:27.038Z,3.87
2018-07-28T17:46:30.398Z,4.10
2018-07-28T17:50:33.478Z,2.30
2018-07-28T17:54:36.841Z,2.55
2018-07-28T17:58:40.160Z,2.27
2018-07-28T18:02:43.516Z,2.67
2018-07-28T18:06:46.842Z,2.52
2018-07-28T18:10:50.222Z,2.42
2018-07-28T18:14:53.574Z,2.50
2018-07-28T18:18:57.902Z,2.40
2018-07-28T18:23:01.276Z,2.30
2018-07-28T18:27:04.869Z,2.67
2018-07-28T18:31:08.253Z,2.60
2018-07-28T18:35:11.575Z,2.77
2018-07-28T18:39:14.916Z,2.90
2018-07-28T18:43:18.263Z,2.90
2018-07-28T18:47:21.620Z,3.07
2018-07-28T18:51:25.050Z,3.20
2018-07-28T18:55:28.379Z,2.87
2018-07-28T18:59:31.707Z,3.20
2018-07-28T19:03:35.588Z,3.30
2018-07-28T19:07:39.828Z,3.50
2018-07-28T19:11:43.713Z,3.67
2018-07-28T19:15:47.144Z,3.67
2018-07-28T19:19:50.476Z,3.90
2018-07-28T19:23:59.168Z,3.73
2018-07-28T19:28:08.076Z,4.00
2018-07-28T19:32:11.687Z,3.90
2018-07-28T19:37:22.088Z,3.63
2018-07-28T19:41:25.427Z,4.30
2018-07-28T19:45:28.767Z,4.30
2018-07-28T19:49:32.095Z,4.53
2018-07-28T19:53:35.409Z,4.73
2018-07-28T19:57:38.826Z,4.50
2018-07-28T20:01:41.929Z,5.00
2018-07-28T20:05:45.632Z,5.20
2018-07-28T20:09:48.951Z,5.30
2018-07-28T20:13:52.290Z,5.22
2018-07-28T20:17:55.658Z,5.10
2018-07-28T20:21:59.045Z,5.30
2018-07-28T20:26:03.309Z,4.87
2018-07-28T20:30:06.710Z,5.47
2018-07-28T20:34:10.194Z,4.80
2018-07-28T20:38:13.527Z,5.40
2018-07-28T20:42:16.902Z,4.73
2018-07-28T20:46:20.215Z,4.87
2018-07-28T20:50:23.559Z,5.43
2018-07-28T20:54:27.151Z,5.40
2018-07-28T20:58:30.512Z,5.53
2018-07-28T21:02:33.856Z,5.87
2018-07-28T21:06:37.264Z,6.10
2018-07-28T21:10:40.602Z,6.30
2018-07-28T21:14:43.966Z,6.70
2018-07-28T21:18:47.323Z,6.77
2018-07-28T21:22:50.697Z,6.70
2018-07-28T21:26:54.070Z,5.90
2018-07-28T21:30:57.398Z,6.57
2018-07-28T21:35:00.767Z,6.63
2018-07-28T21:39:05.824Z,6.33
2018-07-28T21:43:09.164Z,7.00
2018-07-28T21:47:12.504Z,7.37
2018-07-28T21:51:15.891Z,7.50
2018-07-28T21:55:19.236Z,7.83
2018-07-28T21:59:22.680Z,7.00
2018-07-28T22:03:27.011Z,7.70
2018-07-28T22:07:30.361Z,7.70
2018-07-28T22:11:33.706Z,6.90
2018-07-28T22:15:37.041Z,7.30
2018-07-28T22:19:40.527Z,7.63
2018-07-28T22:23:44.056Z,7.90
2018-07-28T22:27:47.420Z,8.50
2018-07-28T22:31:50.798Z,8.90
2018-07-28T22:35:54.142Z,8.83
2018-07-28T22:39:57.482Z,8.33
2018-07-28T22:44:00.825Z,9.70
2018-07-28T22:48:04.179Z,8.53
2018-07-28T22:52:07.548Z,9.93
2018-07-28T22:56:10.925Z,8.83
2018-07-28T23:00:14.255Z,7.90
2018-07-28T23:04:17.582Z,8.80
2018-07-28T23:08:20.916Z,9.43
2018-07-28T23:12:24.224Z,10.10
2018-07-28T23:16:27.556Z,9.30
2018-07-28T23:20:30.905Z,8.53
2018-07-28T23:24:34.287Z,7.77
2018-07-28T23:28:37.658Z,9.17
2018-07-28T23:32:41.207Z,9.37
2018-07-28T23:36:44.552Z,8.67
2018-07-28T23:40:47.990Z,9.10
2018-07-28T23:44:51.319Z,9.20
2018-07-28T23:48:54.657Z,9.73
2018-07-28T23:52:57.999Z,9.60
2018-07-28T23:57:01.339Z,9.07
